createdAt,value
2022-11-18T00:01:30.716Z,8.78
2022-11-18T00:03:56.830Z,8.71
2022-11-18T00:06:22.926Z,8.77
2022-11-18T00:08:49.019Z,8.72
2022-11-18T00:11:15.130Z,8.72
2022-11-18T00:13:41.232Z,8.74
2022-11-18T00:16:07.346Z,8.69
2022-11-18T00:18:33.466Z,8.75
2022-11-18T00:20:59.567Z,8.73
2022-11-18T00:23:25.662Z,8.72
2022-11-18T00:25:52.060Z,8.71
2022-11-18T00:28:18.143Z,8.72
2022-11-18T00:30:44.233Z,8.71
2022-11-18T00:33:10.361Z,8.69
2022-11-18T00:35:36.454Z,8.66
2022-11-18T00:38:02.540Z,8.69
2022-11-18T00:40:28.656Z,8.67
2022-11-18T00:42:54.756Z,8.55
2022-11-18T00:45:20.847Z,8.54
2022-11-18T00:47:46.952Z,8.58
2022-11-18T00:50:13.054Z,8.63
2022-11-18T00:52:39.153Z,8.68
2022-11-18T00:55:05.255Z,8.60
2022-11-18T00:57:31.345Z,8.62
2022-11-18T00:59:57.455Z,8.61
2022-11-18T01:02:23.573Z,8.61
2022-11-18T01:04:49.684Z,8.55
2022-11-18T01:07:15.858Z,8.61
2022-11-18T01:09:42.050Z,8.65
2022-11-18T01:12:08.155Z,8.55
2022-11-18T01:14:34.245Z,8.43
2022-11-18T01:17:00.353Z,8.39
2022-11-18T01:19:26.444Z,8.40
2022-11-18T01:21:52.559Z,8.42
2022-11-18T01:24:18.671Z,8.39
2022-11-18T01:26:44.763Z,8.37
2022-11-18T01:29:10.860Z,8.28
2022-11-18T01:31:49.894Z,8.35
2022-11-18T01:34:23.092Z,8.32
2022-11-18T01:36:49.207Z,8.30
2022-11-18T01:39:15.471Z,8.32
2022-11-18T01:41:41.818Z,8.39
2022-11-18T01:44:07.923Z,8.29
2022-11-18T01:46:34.016Z,8.19
2022-11-18T01:49:00.113Z,8.13
2022-11-18T01:51:27.055Z,8.20
2022-11-18T01:53:53.161Z,8.22
2022-11-18T01:56:19.264Z,8.24
2022-11-18T01:58:45.376Z,8.18
2022-11-18T02:01:11.558Z,8.21
2022-11-18T02:03:37.787Z,8.16
2022-11-18T02:06:03.911Z,8.25
2022-11-18T02:08:30.022Z,8.28
2022-11-18T02:10:56.121Z,8.13
2022-11-18T02:13:22.245Z,8.03
2022-11-18T02:15:48.343Z,7.89
2022-11-18T02:18:14.462Z,7.94
2022-11-18T02:20:40.573Z,7.96
2022-11-18T02:23:06.673Z,7.96
2022-11-18T02:25:32.771Z,8.13
2022-11-18T02:27:58.885Z,8.13
2022-11-18T02:30:24.971Z,8.09
2022-11-18T02:32:51.063Z,8.03
2022-11-18T02:35:17.173Z,8.00
2022-11-18T02:37:43.288Z,8.11
2022-11-18T02:40:09.384Z,8.28
2022-11-18T02:42:35.492Z,8.36
2022-11-18T02:45:01.590Z,8.32
2022-11-18T02:47:27.684Z,8.40
2022-11-18T02:49:53.802Z,8.37
2022-11-18T02:52:19.903Z,8.33
2022-11-18T02:54:45.999Z,8.19
2022-11-18T02:57:12.118Z,8.24
2022-11-18T02:59:38.210Z,8.33
2022-11-18T03:02:04.306Z,8.40
2022-11-18T03:04:30.913Z,8.49
2022-11-18T03:06:57.058Z,8.46
2022-11-18T03:09:23.160Z,8.51
2022-11-18T03:11:49.260Z,8.55
2022-11-18T03:14:15.357Z,8.50
2022-11-18T03:16:41.468Z,8.46
2022-11-18T03:19:07.585Z,8.55
2022-11-18T03:21:33.679Z,8.57
2022-11-18T03:23:59.785Z,8.58
2022-11-18T03:26:25.910Z,8.58
2022-11-18T03:28:51.998Z,8.60
2022-11-18T03:31:18.101Z,8.32
2022-11-18T03:33:44.289Z,8.33
2022-11-18T03:36:10.387Z,8.30
2022-11-18T03:38:36.479Z,8.39
2022-11-18T03:41:02.595Z,8.45
2022-11-18T03:43:28.688Z,8.51
2022-11-18T03:45:54.780Z,8.51
2022-11-18T03:48:20.889Z,8.60
2022-11-18T03:50:46.975Z,8.52
2022-11-18T03:53:13.080Z,8.38
2022-11-18T03:55:39.217Z,8.30
2022-11-18T03:58:05.327Z,8.43
2022-11-18T04:00:31.419Z,8.50
2022-11-18T04:02:57.550Z,8.43
2022-11-18T04:05:23.662Z,8.41
2022-11-18T04:07:49.747Z,8.46
2022-11-18T04:10:15.874Z,8.55
2022-11-18T04:12:41.961Z,8.50
2022-11-18T04:15:08.064Z,8.59
2022-11-18T04:17:34.365Z,8.55
2022-11-18T04:20:00.464Z,8.58
2022-11-18T04:22:26.556Z,8.56
2022-11-18T04:24:52.662Z,8.62
2022-11-18T04:27:20.549Z,8.65
2022-11-18T04:29:46.649Z,8.68
2022-11-18T04:32:12.786Z,8.61
2022-11-18T04:34:38.885Z,8.56
2022-11-18T04:37:05.001Z,8.49
2022-11-18T04:39:31.605Z,8.48
2022-11-18T04:41:57.745Z,8.42
2022-11-18T04:44:23.882Z,8.42
2022-11-18T04:46:49.997Z,8.35
2022-11-18T04:49:16.490Z,8.43
2022-11-18T04:51:42.916Z,8.49
2022-11-18T04:54:09.072Z,8.55
2022-11-18T04:56:35.185Z,8.58
2022-11-18T04:59:01.294Z,8.28
2022-11-18T05:01:27.441Z,8.23
2022-11-18T05:03:53.601Z,8.28
2022-11-18T05:06:19.690Z,8.33
2022-11-18T05:08:45.792Z,8.37
2022-11-18T05:11:11.886Z,8.30
2022-11-18T05:13:37.977Z,8.24
2022-11-18T05:16:04.101Z,8.05
2022-11-18T05:18:30.202Z,7.84
2022-11-18T05:20:56.317Z,8.01
2022-11-18T05:23:22.425Z,8.13
2022-11-18T05:25:48.514Z,8.14
2022-11-18T05:28:14.622Z,8.15
2022-11-18T05:30:40.734Z,8.19
2022-11-18T05:33:06.951Z,8.23
2022-11-18T05:35:33.153Z,8.28
2022-11-18T05:37:59.280Z,8.25
2022-11-18T05:40:25.456Z,8.23
2022-11-18T05:42:51.552Z,8.32
2022-11-18T05:45:17.663Z,8.35
2022-11-18T05:47:43.747Z,8.24
2022-11-18T05:50:09.845Z,8.20
2022-11-18T05:52:35.958Z,8.29
2022-11-18T05:55:02.058Z,8.36
2022-11-18T05:57:28.179Z,8.37
2022-11-18T05:59:54.626Z,8.38
2022-11-18T06:02:20.759Z,8.42
2022-11-18T06:04:46.896Z,8.45
2022-11-18T06:07:13.073Z,8.51
2022-11-18T06:09:39.196Z,8.58
2022-11-18T06:12:05.297Z,8.52
2022-11-18T06:14:33.054Z,8.53
2022-11-18T06:16:59.201Z,8.49
2022-11-18T06:19:25.320Z,8.52
2022-11-18T06:21:51.914Z,8.43
2022-11-18T06:24:18.015Z,8.44
2022-11-18T06:26:44.099Z,8.53
2022-11-18T06:29:10.228Z,8.47
2022-11-18T06:31:36.335Z,8.53
2022-11-18T06:34:02.435Z,8.51
2022-11-18T06:36:28.564Z,8.55
2022-11-18T06:38:54.663Z,8.57
2022-11-18T06:41:20.772Z,8.53
2022-11-18T06:43:47.151Z,8.53
2022-11-18T06:46:13.276Z,8.51
2022-11-18T06:48:39.363Z,8.56
2022-11-18T06:51:05.482Z,8.57
2022-11-18T06:53:31.586Z,8.58
2022-11-18T06:55:57.681Z,8.53
2022-11-18T06:58:23.795Z,8.58
2022-11-18T07:00:49.943Z,8.59
2022-11-18T07:03:16.092Z,8.59
2022-11-18T07:05:42.222Z,8.46
2022-11-18T07:08:08.321Z,8.38
2022-11-18T07:10:34.413Z,8.40
2022-11-18T07:13:00.524Z,8.32
2022-11-18T07:15:26.621Z,8.40
2022-11-18T07:17:52.719Z,8.44
2022-11-18T07:20:18.847Z,8.31
2022-11-18T07:22:44.962Z,8.21
2022-11-18T07:25:11.070Z,8.09
2022-11-18T07:27:37.192Z,8.17
2022-11-18T07:30:03.286Z,8.25
2022-11-18T07:32:29.407Z,8.35
2022-11-18T07:34:55.533Z,8.38
2022-11-18T07:37:21.912Z,8.36
2022-11-18T07:39:48.054Z,8.33
2022-11-18T07:42:14.166Z,8.25
2022-11-18T07:44:40.253Z,8.24
2022-11-18T07:47:06.354Z,8.26
2022-11-18T07:49:32.970Z,8.20
2022-11-18T07:51:59.051Z,8.19
2022-11-18T07:54:25.159Z,7.96
2022-11-18T07:56:51.378Z,8.03
2022-11-18T07:59:17.771Z,8.15
2022-11-18T08:01:47.972Z,8.32
2022-11-18T08:04:14.237Z,8.33
2022-11-18T08:06:40.340Z,8.39
2022-11-18T08:09:06.458Z,8.41
2022-11-18T08:11:32.566Z,8.41
2022-11-18T08:13:58.664Z,8.54
2022-11-18T08:16:24.748Z,8.51
2022-11-18T08:18:50.874Z,8.48
2022-11-18T08:21:16.982Z,8.40
2022-11-18T08:23:43.101Z,8.44
2022-11-18T08:26:09.222Z,8.43
2022-11-18T08:28:35.430Z,8.48
2022-11-18T08:31:01.596Z,8.55
2022-11-18T08:33:27.704Z,8.63
2022-11-18T08:35:53.802Z,8.73
2022-11-18T08:38:19.883Z,8.75
2022-11-18T08:40:46.004Z,8.81
2022-11-18T08:43:12.107Z,8.81
2022-11-18T08:45:38.222Z,8.88
2022-11-18T08:48:04.337Z,8.97
2022-11-18T08:50:30.433Z,9.01
2022-11-18T08:52:56.534Z,9.08
2022-11-18T08:55:22.677Z,9.06
2022-11-18T08:57:48.771Z,9.03
2022-11-18T09:00:14.855Z,9.09
2022-11-18T09:02:41.201Z,9.18
2022-11-18T09:05:07.334Z,9.30
2022-11-18T09:07:33.625Z,9.33
2022-11-18T09:09:59.893Z,9.42
2022-11-18T09:12:26.096Z,9.46
2022-11-18T09:17:38.297Z,9.50
2022-11-18T09:20:04.393Z,9.45
2022-11-18T09:22:30.498Z,9.48
2022-11-18T09:24:57.117Z,9.55
2022-11-18T09:27:23.224Z,9.58
2022-11-18T09:29:49.312Z,9.60
2022-11-18T09:32:15.416Z,9.50
2022-11-18T09:34:41.512Z,9.61
2022-11-18T09:37:07.626Z,9.63
2022-11-18T09:39:33.757Z,9.70
2022-11-18T09:41:59.865Z,9.73
2022-11-18T09:44:25.956Z,9.78
2022-11-18T09:46:52.056Z,9.90
2022-11-18T09:49:18.280Z,9.92
2022-11-18T09:51:44.503Z,9.93
2022-11-18T09:54:10.895Z,9.97
2022-11-18T09:56:37.042Z,9.95
2022-11-18T09:59:03.219Z,10.01
2022-11-18T10:01:29.445Z,9.98
2022-11-18T10:03:55.619Z,9.98
2022-11-18T10:06:23.747Z,9.90
2022-11-18T10:08:50.138Z,9.90
2022-11-18T10:11:16.273Z,9.92
2022-11-18T10:13:42.408Z,9.91
2022-11-18T10:16:08.571Z,9.93
2022-11-18T10:21:20.853Z,9.92
2022-11-18T10:23:46.991Z,9.92
2022-11-18T10:26:13.179Z,9.91
2022-11-18T10:28:39.803Z,9.98
2022-11-18T10:31:05.931Z,9.98
2022-11-18T10:33:32.089Z,10.08
2022-11-18T10:36:01.060Z,10.07
2022-11-18T10:38:27.240Z,10.07
2022-11-18T10:40:53.430Z,10.13
2022-11-18T10:43:19.556Z,10.06
2022-11-18T10:45:45.688Z,10.00
2022-11-18T10:48:11.795Z,10.00
2022-11-18T10:50:37.911Z,10.03
2022-11-18T10:53:04.028Z,10.03
2022-11-18T10:55:30.212Z,9.97
2022-11-18T10:57:56.399Z,10.00
2022-11-18T11:00:22.525Z,10.02
2022-11-18T11:02:49.886Z,10.03
2022-11-18T11:05:16.012Z,10.11
2022-11-18T11:07:42.230Z,10.15
2022-11-18T11:10:08.414Z,10.16
2022-11-18T11:12:34.573Z,10.09
2022-11-18T11:15:00.687Z,10.08
2022-11-18T11:17:26.863Z,10.07
2022-11-18T11:19:53.123Z,10.12
2022-11-18T11:22:19.273Z,10.10
2022-11-18T11:24:45.403Z,10.10
2022-11-18T11:29:57.632Z,10.04
2022-11-18T11:32:23.789Z,10.01
2022-11-18T11:34:49.901Z,9.90
2022-11-18T11:37:16.005Z,10.12
2022-11-18T11:39:42.132Z,10.16
2022-11-18T11:42:08.296Z,10.28
2022-11-18T11:44:34.413Z,10.48
2022-11-18T11:47:00.561Z,10.36
2022-11-18T11:49:26.685Z,10.49
2022-11-18T11:51:52.782Z,10.58
2022-11-18T11:54:18.909Z,10.59
2022-11-18T11:56:45.053Z,10.74
2022-11-18T11:59:11.216Z,10.78
2022-11-18T12:01:37.672Z,10.82
2022-11-18T12:04:03.803Z,10.90
2022-11-18T12:06:29.931Z,10.70
2022-11-18T12:08:56.121Z,10.73
2022-11-18T12:11:22.254Z,10.74
2022-11-18T12:13:48.390Z,10.95
2022-11-18T12:16:22.070Z,11.04
2022-11-18T12:18:48.172Z,11.15
2022-11-18T12:21:14.291Z,11.17
2022-11-18T12:23:40.394Z,11.32
2022-11-18T12:26:06.516Z,11.35
2022-11-18T12:28:32.855Z,11.33
2022-11-18T12:30:59.018Z,11.28
2022-11-18T12:33:25.149Z,11.26
2022-11-18T12:35:51.275Z,11.42
2022-11-18T12:38:17.413Z,11.38
2022-11-18T12:40:48.895Z,11.47
2022-11-18T12:43:18.252Z,11.38
2022-11-18T12:45:44.350Z,11.21
2022-11-18T12:48:10.445Z,11.41
2022-11-18T12:50:36.561Z,11.44
2022-11-18T12:53:02.653Z,11.37
2022-11-18T12:55:28.780Z,11.30
2022-11-18T12:57:54.897Z,11.24
2022-11-18T13:00:20.998Z,11.30
2022-11-18T13:02:47.097Z,11.27
2022-11-18T13:05:13.225Z,11.32
2022-11-18T13:07:39.385Z,11.24
2022-11-18T13:10:05.605Z,11.28
2022-11-18T13:12:31.710Z,11.41
2022-11-18T13:14:57.800Z,11.43
2022-11-18T13:17:23.890Z,11.40
2022-11-18T13:19:50.070Z,11.47
2022-11-18T13:22:16.201Z,11.48
2022-11-18T13:24:42.285Z,11.42
2022-11-18T13:27:08.391Z,11.29
2022-11-18T13:29:34.493Z,11.37
2022-11-18T13:32:00.592Z,11.08
2022-11-18T13:34:26.717Z,11.13
2022-11-18T13:36:52.826Z,11.19
2022-11-18T13:39:19.057Z,11.13
2022-11-18T13:41:45.423Z,11.05
2022-11-18T13:44:11.509Z,11.02
2022-11-18T13:46:37.592Z,11.09
2022-11-18T13:49:03.704Z,11.07
2022-11-18T13:51:29.800Z,11.05
2022-11-18T13:53:55.894Z,10.98
2022-11-18T13:56:22.049Z,10.96
2022-11-18T14:01:34.311Z,10.95
2022-11-18T14:04:00.426Z,10.99
2022-11-18T14:06:26.606Z,10.95
2022-11-18T14:08:53.209Z,10.94
2022-11-18T14:11:19.303Z,10.88
2022-11-18T14:13:45.395Z,10.86
2022-11-18T14:16:11.544Z,10.85
2022-11-18T14:18:37.645Z,10.82
2022-11-18T14:21:03.740Z,10.85
2022-11-18T14:23:29.853Z,10.81
2022-11-18T14:25:55.936Z,10.74
2022-11-18T14:28:22.073Z,10.69
2022-11-18T14:30:48.184Z,10.65
2022-11-18T14:33:14.268Z,10.55
2022-11-18T14:35:40.395Z,10.51
2022-11-18T14:40:53.112Z,10.48
2022-11-18T14:43:19.210Z,10.49
2022-11-18T14:45:45.296Z,10.46
2022-11-18T14:48:11.385Z,10.36
2022-11-18T14:50:37.572Z,10.19
2022-11-18T14:53:04.148Z,10.09
2022-11-18T14:55:30.302Z,10.08
2022-11-18T14:57:56.425Z,10.02
2022-11-18T15:00:22.520Z,9.94
2022-11-18T15:02:48.627Z,9.90
2022-11-18T15:05:14.773Z,9.99
2022-11-18T15:07:40.884Z,10.00
2022-11-18T15:10:07.113Z,9.85
2022-11-18T15:12:33.351Z,9.76
2022-11-18T15:14:59.446Z,9.83
2022-11-18T15:17:25.544Z,9.74
2022-11-18T15:19:52.137Z,9.71
2022-11-18T15:22:18.238Z,9.76
2022-11-18T15:24:44.333Z,9.68
2022-11-18T15:27:10.454Z,9.57
2022-11-18T15:29:36.550Z,9.53
2022-11-18T15:32:02.652Z,9.36
2022-11-18T15:34:29.038Z,9.33
2022-11-18T15:36:55.164Z,9.35
2022-11-18T15:39:21.253Z,9.36
2022-11-18T15:41:47.432Z,9.22
2022-11-18T15:44:13.538Z,9.20
2022-11-18T15:46:39.653Z,9.13
2022-11-18T15:49:09.134Z,9.18
2022-11-18T15:51:35.742Z,9.10
2022-11-18T15:54:01.854Z,9.13
2022-11-18T15:56:27.976Z,9.03
2022-11-18T15:58:56.648Z,8.93
2022-11-18T16:01:23.135Z,9.01
2022-11-18T16:03:49.260Z,9.02
2022-11-18T16:06:15.360Z,8.90
2022-11-18T16:08:41.458Z,8.87
2022-11-18T16:11:07.611Z,8.84
2022-11-18T16:13:33.696Z,8.79
2022-11-18T16:15:59.793Z,8.87
2022-11-18T16:18:25.904Z,8.82
2022-11-18T16:20:51.999Z,8.77
2022-11-18T16:23:18.092Z,8.73
2022-11-18T16:25:44.197Z,8.67
2022-11-18T16:28:10.299Z,8.65
2022-11-18T16:30:36.397Z,8.56
2022-11-18T16:33:02.510Z,8.51
2022-11-18T16:35:28.608Z,8.46
2022-11-18T16:37:54.694Z,8.44
2022-11-18T16:40:20.803Z,8.42
2022-11-18T16:42:46.903Z,8.42
2022-11-18T16:45:12.986Z,8.40
2022-11-18T16:47:39.098Z,8.42
2022-11-18T16:50:05.220Z,8.40
2022-11-18T16:52:31.348Z,8.40
2022-11-18T16:54:57.468Z,8.40
2022-11-18T16:57:23.561Z,8.36
2022-11-18T16:59:49.658Z,8.23
2022-11-18T17:02:15.847Z,8.29
2022-11-18T17:04:44.308Z,8.31
2022-11-18T17:07:10.450Z,8.35
2022-11-18T17:09:36.587Z,8.38
2022-11-18T17:12:02.703Z,8.40
2022-11-18T17:14:28.812Z,8.32
2022-11-18T17:16:54.995Z,8.42
2022-11-18T17:19:21.968Z,8.37
2022-11-18T17:21:48.275Z,8.37
2022-11-18T17:24:14.450Z,8.41
2022-11-18T17:26:40.554Z,8.44
2022-11-18T17:29:06.654Z,8.43
2022-11-18T17:31:32.779Z,8.45
2022-11-18T17:33:58.881Z,8.24
2022-11-18T17:36:24.992Z,8.23
2022-11-18T17:38:51.108Z,8.28
2022-11-18T17:41:17.199Z,8.26
2022-11-18T17:43:43.295Z,8.28
2022-11-18T17:46:09.972Z,8.41
2022-11-18T17:48:36.086Z,8.48
2022-11-18T17:51:02.253Z,8.47
2022-11-18T17:53:31.663Z,8.26
2022-11-18T17:56:03.498Z,8.29
2022-11-18T17:58:30.197Z,8.24
2022-11-18T18:00:56.298Z,8.24
2022-11-18T18:03:22.486Z,8.28
2022-11-18T18:05:48.631Z,8.33
2022-11-18T18:08:14.762Z,8.25
2022-11-18T18:10:40.860Z,8.20
2022-11-18T18:13:07.002Z,8.32
2022-11-18T18:15:33.160Z,8.14
2022-11-18T18:17:59.245Z,7.97
2022-11-18T18:20:25.827Z,8.06
2022-11-18T18:22:51.930Z,8.09
2022-11-18T18:25:18.031Z,8.03
2022-11-18T18:27:44.149Z,7.94
2022-11-18T18:30:10.253Z,7.98
2022-11-18T18:32:36.335Z,7.85
2022-11-18T18:35:02.472Z,7.84
2022-11-18T18:37:28.568Z,7.74
2022-11-18T18:39:54.661Z,7.64
2022-11-18T18:42:20.773Z,7.77
2022-11-18T18:44:46.883Z,7.75
2022-11-18T18:47:12.978Z,7.93
2022-11-18T18:49:39.132Z,7.88
2022-11-18T18:52:05.225Z,7.87
2022-11-18T18:54:31.310Z,7.90
2022-11-18T18:56:57.428Z,7.94
2022-11-18T18:59:23.515Z,7.97
2022-11-18T19:01:49.725Z,7.85
2022-11-18T19:04:16.077Z,7.82
2022-11-18T19:06:56.674Z,7.92
2022-11-18T19:09:24.804Z,7.98
2022-11-18T19:11:51.048Z,7.86
2022-11-18T19:14:17.603Z,7.86
2022-11-18T19:16:43.915Z,7.90
2022-11-18T19:19:10.007Z,7.91
2022-11-18T19:21:36.112Z,7.88
2022-11-18T19:24:02.250Z,7.93
2022-11-18T19:26:28.346Z,7.88
2022-11-18T19:28:54.466Z,7.80
2022-11-18T19:31:20.583Z,7.86
2022-11-18T19:33:46.785Z,7.85
2022-11-18T19:36:12.904Z,7.90
2022-11-18T19:38:39.013Z,7.86
2022-11-18T19:41:05.121Z,7.76
2022-11-18T19:43:31.224Z,7.82
2022-11-18T19:45:57.333Z,7.94
2022-11-18T19:48:23.424Z,7.90
2022-11-18T19:50:49.676Z,7.97
2022-11-18T19:53:15.836Z,7.98
2022-11-18T19:55:41.928Z,8.04
2022-11-18T19:58:08.019Z,8.07
2022-11-18T20:00:34.118Z,8.02
2022-11-18T20:03:00.216Z,8.04
2022-11-18T20:05:26.301Z,8.00
2022-11-18T20:07:52.521Z,7.90
2022-11-18T20:10:18.649Z,7.87
2022-11-18T20:12:44.731Z,7.80
2022-11-18T20:15:10.840Z,7.52
2022-11-18T20:17:36.927Z,7.22
2022-11-18T20:20:03.031Z,6.96
2022-11-18T20:22:29.161Z,6.87
2022-11-18T20:24:55.275Z,6.90
2022-11-18T20:27:21.376Z,7.12
2022-11-18T20:29:47.815Z,7.17
2022-11-18T20:32:13.919Z,7.22
2022-11-18T20:34:40.008Z,7.06
2022-11-18T20:37:06.119Z,6.85
2022-11-18T20:39:32.218Z,6.93
2022-11-18T20:41:58.300Z,6.85
2022-11-18T20:44:24.425Z,6.83
2022-11-18T20:46:50.534Z,6.67
2022-11-18T20:49:17.008Z,6.65
2022-11-18T20:51:43.304Z,6.66
2022-11-18T20:54:09.388Z,6.78
2022-11-18T20:56:35.468Z,6.54
2022-11-18T20:59:01.586Z,6.60
2022-11-18T21:01:27.962Z,6.57
2022-11-18T21:03:54.156Z,6.66
2022-11-18T21:06:20.284Z,6.50
2022-11-18T21:08:46.371Z,6.45
2022-11-18T21:11:12.461Z,6.46
2022-11-18T21:13:38.577Z,6.57
2022-11-18T21:16:04.663Z,6.63
2022-11-18T21:18:30.763Z,6.66
2022-11-18T21:20:56.865Z,6.67
2022-11-18T21:23:22.969Z,6.74
2022-11-18T21:25:49.060Z,6.73
2022-11-18T21:28:15.163Z,6.73
2022-11-18T21:30:41.253Z,6.77
2022-11-18T21:33:07.339Z,6.68
2022-11-18T21:35:33.453Z,6.61
2022-11-18T21:37:59.542Z,6.63
2022-11-18T21:40:25.632Z,6.59
2022-11-18T21:42:51.731Z,6.58
2022-11-18T21:45:17.825Z,6.69
2022-11-18T21:47:43.933Z,6.67
2022-11-18T21:50:10.051Z,6.68
2022-11-18T21:52:36.183Z,6.55
2022-11-18T21:55:02.273Z,6.64
2022-11-18T21:57:28.483Z,6.63
2022-11-18T21:59:54.575Z,6.66
2022-11-18T22:02:20.656Z,6.56
2022-11-18T22:04:46.770Z,6.61
2022-11-18T22:07:13.027Z,6.64
2022-11-18T22:09:39.181Z,6.69
2022-11-18T22:12:05.301Z,6.69
2022-11-18T22:14:31.396Z,6.71
2022-11-18T22:16:57.483Z,6.59
2022-11-18T22:19:23.870Z,6.61
2022-11-18T22:21:50.160Z,6.64
2022-11-18T22:24:16.254Z,6.63
2022-11-18T22:26:42.426Z,6.64
2022-11-18T22:29:08.527Z,6.55
2022-11-18T22:31:34.620Z,6.62
2022-11-18T22:34:01.212Z,6.59
2022-11-18T22:36:27.318Z,6.53
2022-11-18T22:38:53.430Z,6.59
2022-11-18T22:41:19.532Z,6.55
2022-11-18T22:43:45.627Z,6.51
2022-11-18T22:46:11.730Z,6.58
2022-11-18T22:48:37.836Z,6.64
2022-11-18T22:51:03.934Z,6.53
2022-11-18T22:53:30.011Z,6.47
2022-11-18T22:55:56.125Z,6.50
2022-11-18T22:58:22.233Z,6.44
2022-11-18T23:00:48.323Z,6.58
2022-11-18T23:03:14.443Z,6.56
2022-11-18T23:05:40.550Z,6.43
2022-11-18T23:08:06.678Z,6.28
2022-11-18T23:10:32.867Z,6.03
2022-11-18T23:12:58.952Z,5.97
2022-11-18T23:15:25.053Z,5.91
2022-11-18T23:17:51.159Z,5.89
2022-11-18T23:20:17.252Z,5.92
2022-11-18T23:22:43.339Z,6.00
2022-11-18T23:25:09.473Z,5.86
2022-11-18T23:27:35.564Z,5.69
2022-11-18T23:30:01.652Z,5.47
2022-11-18T23:32:27.760Z,5.70
2022-11-18T23:34:53.872Z,5.71
2022-11-18T23:37:19.958Z,5.93
2022-11-18T23:39:46.552Z,5.92
2022-11-18T23:42:12.636Z,5.69
2022-11-18T23:44:38.733Z,5.68
2022-11-18T23:47:04.856Z,5.80
2022-11-18T23:49:30.939Z,5.86
2022-11-18T23:51:57.057Z,5.91
2022-11-18T23:54:23.184Z,5.93
2022-11-18T23:56:49.268Z,5.89
2022-11-18T23:59:15.365Z,5.96
